sensor_id;sensor_type;location;lat;lon;timestamp;P1;durP1;ratioP1;P2;durP2;ratioP2
3847;SDS011;1939;48.720;9.166;2022-09-09T00:00:23;6.23;;;1.73;;
3847;SDS011;1939;48.720;9.166;2022-09-09T00:02:52;8.17;;;2.80;;
3847;SDS011;1939;48.720;9.166;2022-09-09T00:05:23;4.27;;;2.37;;
3847;SDS011;1939;48.720;9.166;2022-09-09T00:07:52;4.10;;;2.23;;
3847;SDS011;1939;48.720;9.166;2022-09-09T00:13:06;5.57;;;2.23;;
3847;SDS011;1939;48.720;9.166;2022-09-09T00:15:38;14.33;;;2.50;;
3847;SDS011;1939;48.720;9.166;2022-09-09T00:18:17;6.97;;;2.20;;
3847;SDS011;1939;48.720;9.166;2022-09-09T00:23:14;4.00;;;2.63;;
3847;SDS011;1939;48.720;9.166;2022-09-09T00:26:02;5.17;;;2.37;;
3847;SDS011;1939;48.720;9.166;2022-09-09T00:28:30;5.17;;;2.60;;
3847;SDS011;1939;48.720;9.166;2022-09-09T00:30:59;3.57;;;2.40;;
3847;SDS011;1939;48.720;9.166;2022-09-09T00:33:26;21.40;;;2.57;;
3847;SDS011;1939;48.720;9.166;2022-09-09T00:35:54;3.70;;;3.40;;
3847;SDS011;1939;48.720;9.166;2022-09-09T00:38:34;4.80;;;2.03;;
3847;SDS011;1939;48.720;9.166;2022-09-09T00:41:02;6.07;;;2.00;;
3847;SDS011;1939;48.720;9.166;2022-09-09T00:43:29;3.37;;;1.90;;
3847;SDS011;1939;48.720;9.166;2022-09-09T00:51:43;4.60;;;2.30;;
3847;SDS011;1939;48.720;9.166;2022-09-09T00:54:04;5.20;;;1.70;;
3847;SDS011;1939;48.720;9.166;2022-09-09T00:56:35;6.07;;;1.90;;
3847;SDS011;1939;48.720;9.166;2022-09-09T01:01:35;3.13;;;1.90;;
3847;SDS011;1939;48.720;9.166;2022-09-09T01:04:01;3.10;;;2.03;;
3847;SDS011;1939;48.720;9.166;2022-09-09T01:06:29;3.83;;;1.43;;
3847;SDS011;1939;48.720;9.166;2022-09-09T01:11:36;8.00;;;1.80;;
3847;SDS011;1939;48.720;9.166;2022-09-09T01:16:46;5.83;;;1.50;;
3847;SDS011;1939;48.720;9.166;2022-09-09T01:19:15;3.23;;;2.03;;
3847;SDS011;1939;48.720;9.166;2022-09-09T01:21:56;9.73;;;2.53;;
3847;SDS011;1939;48.720;9.166;2022-09-09T01:24:38;2.73;;;1.30;;
3847;SDS011;1939;48.720;9.166;2022-09-09T01:27:05;3.23;;;1.70;;
3847;SDS011;1939;48.720;9.166;2022-09-09T01:29:31;19.80;;;2.23;;
3847;SDS011;1939;48.720;9.166;2022-09-09T01:31:58;4.43;;;2.00;;
3847;SDS011;1939;48.720;9.166;2022-09-09T01:34:25;7.27;;;2.43;;
3847;SDS011;1939;48.720;9.166;2022-09-09T01:36:53;4.77;;;1.87;;
3847;SDS011;1939;48.720;9.166;2022-09-09T01:39:22;3.50;;;2.13;;
3847;SDS011;1939;48.720;9.166;2022-09-09T01:41:47;2.80;;;1.53;;
3847;SDS011;1939;48.720;9.166;2022-09-09T01:44:12;4.20;;;1.83;;
3847;SDS011;1939;48.720;9.166;2022-09-09T01:46:38;3.67;;;1.83;;
3847;SDS011;1939;48.720;9.166;2022-09-09T01:49:03;1.40;;;1.30;;
3847;SDS011;1939;48.720;9.166;2022-09-09T01:51:30;3.33;;;1.70;;
3847;SDS011;1939;48.720;9.166;2022-09-09T01:53:55;3.60;;;1.67;;
3847;SDS011;1939;48.720;9.166;2022-09-09T02:03:56;8.00;;;1.87;;
3847;SDS011;1939;48.720;9.166;2022-09-09T02:06:26;3.80;;;1.80;;
3847;SDS011;1939;48.720;9.166;2022-09-09T02:08:55;5.83;;;1.60;;
3847;SDS011;1939;48.720;9.166;2022-09-09T02:11:25;6.10;;;2.00;;
3847;SDS011;1939;48.720;9.166;2022-09-09T02:13:52;6.37;;;1.50;;
3847;SDS011;1939;48.720;9.166;2022-09-09T02:16:22;2.10;;;1.43;;
3847;SDS011;1939;48.720;9.166;2022-09-09T02:19:02;4.07;;;1.70;;
3847;SDS011;1939;48.720;9.166;2022-09-09T02:21:31;2.53;;;1.70;;
3847;SDS011;1939;48.720;9.166;2022-09-09T02:24:00;3.40;;;2.13;;
3847;SDS011;1939;48.720;9.166;2022-09-09T02:26:29;6.17;;;3.37;;
3847;SDS011;1939;48.720;9.166;2022-09-09T02:28:55;8.20;;;2.03;;
3847;SDS011;1939;48.720;9.166;2022-09-09T02:31:23;6.00;;;2.20;;
3847;SDS011;1939;48.720;9.166;2022-09-09T02:33:54;6.43;;;1.60;;
3847;SDS011;1939;48.720;9.166;2022-09-09T02:36:20;4.30;;;1.77;;
3847;SDS011;1939;48.720;9.166;2022-09-09T02:38:48;7.40;;;2.30;;
3847;SDS011;1939;48.720;9.166;2022-09-09T02:41:16;5.17;;;1.97;;
3847;SDS011;1939;48.720;9.166;2022-09-09T02:43:41;2.13;;;1.43;;
3847;SDS011;1939;48.720;9.166;2022-09-09T02:46:23;6.50;;;1.97;;
3847;SDS011;1939;48.720;9.166;2022-09-09T02:49:02;4.37;;;2.27;;
3847;SDS011;1939;48.720;9.166;2022-09-09T02:51:50;3.57;;;1.43;;
3847;SDS011;1939;48.720;9.166;2022-09-09T02:54:20;3.80;;;1.73;;
3847;SDS011;1939;48.720;9.166;2022-09-09T02:56:51;3.33;;;1.53;;
3847;SDS011;1939;48.720;9.166;2022-09-09T02:59:19;7.13;;;1.90;;
3847;SDS011;1939;48.720;9.166;2022-09-09T03:01:44;6.57;;;1.33;;
3847;SDS011;1939;48.720;9.166;2022-09-09T03:04:10;5.87;;;1.73;;
3847;SDS011;1939;48.720;9.166;2022-09-09T03:06:35;2.40;;;1.50;;
3847;SDS011;1939;48.720;9.166;2022-09-09T03:09:00;6.90;;;1.70;;
3847;SDS011;1939;48.720;9.166;2022-09-09T03:11:27;8.27;;;1.67;;
3847;SDS011;1939;48.720;9.166;2022-09-09T03:13:52;7.17;;;1.97;;
3847;SDS011;1939;48.720;9.166;2022-09-09T03:16:18;5.10;;;1.60;;
3847;SDS011;1939;48.720;9.166;2022-09-09T03:18:43;3.20;;;2.03;;
3847;SDS011;1939;48.720;9.166;2022-09-09T03:21:10;3.63;;;1.70;;
3847;SDS011;1939;48.720;9.166;2022-09-09T03:23:36;1.97;;;1.27;;
3847;SDS011;1939;48.720;9.166;2022-09-09T03:26:01;1.97;;;1.50;;
3847;SDS011;1939;48.720;9.166;2022-09-09T03:28:26;3.60;;;2.37;;
3847;SDS011;1939;48.720;9.166;2022-09-09T03:31:02;3.40;;;1.40;;
3847;SDS011;1939;48.720;9.166;2022-09-09T03:33:28;8.20;;;1.80;;
3847;SDS011;1939;48.720;9.166;2022-09-09T03:35:54;7.20;;;1.70;;
3847;SDS011;1939;48.720;9.166;2022-09-09T03:38:21;5.33;;;1.97;;
3847;SDS011;1939;48.720;9.166;2022-09-09T03:40:50;2.70;;;1.40;;
3847;SDS011;1939;48.720;9.166;2022-09-09T03:43:16;3.97;;;1.40;;
3847;SDS011;1939;48.720;9.166;2022-09-09T03:45:44;1.90;;;1.43;;
3847;SDS011;1939;48.720;9.166;2022-09-09T03:48:11;2.20;;;1.40;;
3847;SDS011;1939;48.720;9.166;2022-09-09T03:50:36;4.67;;;1.60;;
3847;SDS011;1939;48.720;9.166;2022-09-09T03:53:02;4.37;;;1.63;;
3847;SDS011;1939;48.720;9.166;2022-09-09T03:55:27;4.30;;;1.40;;
3847;SDS011;1939;48.720;9.166;2022-09-09T03:57:52;5.80;;;1.97;;
3847;SDS011;1939;48.720;9.166;2022-09-09T04:00:17;6.50;;;1.20;;
3847;SDS011;1939;48.720;9.166;2022-09-09T04:02:42;3.53;;;1.40;;
3847;SDS011;1939;48.720;9.166;2022-09-09T04:05:08;5.77;;;2.03;;
3847;SDS011;1939;48.720;9.166;2022-09-09T04:07:34;3.67;;;1.33;;
3847;SDS011;1939;48.720;9.166;2022-09-09T04:09:59;3.00;;;1.93;;
3847;SDS011;1939;48.720;9.166;2022-09-09T04:12:24;1.77;;;1.67;;
3847;SDS011;1939;48.720;9.166;2022-09-09T04:14:50;4.40;;;1.83;;
3847;SDS011;1939;48.720;9.166;2022-09-09T04:17:15;4.80;;;1.80;;
3847;SDS011;1939;48.720;9.166;2022-09-09T04:19:40;5.13;;;1.97;;
3847;SDS011;1939;48.720;9.166;2022-09-09T04:22:07;3.27;;;1.60;;
3847;SDS011;1939;48.720;9.166;2022-09-09T04:24:32;12.40;;;1.90;;
3847;SDS011;1939;48.720;9.166;2022-09-09T04:26:57;3.17;;;1.70;;
3847;SDS011;1939;48.720;9.166;2022-09-09T04:29:22;3.40;;;1.57;;
3847;SDS011;1939;48.720;9.166;2022-09-09T04:31:48;4.77;;;1.83;;
3847;SDS011;1939;48.720;9.166;2022-09-09T04:34:13;3.40;;;1.63;;
3847;SDS011;1939;48.720;9.166;2022-09-09T04:36:38;5.73;;;1.83;;
3847;SDS011;1939;48.720;9.166;2022-09-09T04:39:05;2.93;;;1.50;;
3847;SDS011;1939;48.720;9.166;2022-09-09T04:41:30;2.80;;;1.73;;
3847;SDS011;1939;48.720;9.166;2022-09-09T04:43:56;4.70;;;1.87;;
3847;SDS011;1939;48.720;9.166;2022-09-09T04:46:21;1.67;;;1.40;;
3847;SDS011;1939;48.720;9.166;2022-09-09T04:48:48;4.57;;;3.03;;
3847;SDS011;1939;48.720;9.166;2022-09-09T04:51:14;6.87;;;1.80;;
3847;SDS011;1939;48.720;9.166;2022-09-09T04:53:39;12.37;;;2.20;;
3847;SDS011;1939;48.720;9.166;2022-09-09T04:56:09;2.37;;;1.50;;
3847;SDS011;1939;48.720;9.166;2022-09-09T04:58:38;3.33;;;2.10;;
3847;SDS011;1939;48.720;9.166;2022-09-09T05:03:29;1.50;;;1.30;;
3847;SDS011;1939;48.720;9.166;2022-09-09T05:05:54;5.90;;;2.10;;
3847;SDS011;1939;48.720;9.166;2022-09-09T05:08:26;3.43;;;1.70;;
3847;SDS011;1939;48.720;9.166;2022-09-09T05:10:51;4.97;;;2.50;;
3847;SDS011;1939;48.720;9.166;2022-09-09T05:13:16;8.27;;;2.00;;
3847;SDS011;1939;48.720;9.166;2022-09-09T05:15:42;3.50;;;1.83;;
3847;SDS011;1939;48.720;9.166;2022-09-09T05:18:08;6.47;;;2.23;;
3847;SDS011;1939;48.720;9.166;2022-09-09T05:20:33;10.53;;;1.83;;
3847;SDS011;1939;48.720;9.166;2022-09-09T05:22:58;3.63;;;1.63;;
3847;SDS011;1939;48.720;9.166;2022-09-09T05:25:24;3.63;;;1.60;;
3847;SDS011;1939;48.720;9.166;2022-09-09T05:27:50;7.20;;;1.83;;
3847;SDS011;1939;48.720;9.166;2022-09-09T05:30:16;5.37;;;1.83;;
3847;SDS011;1939;48.720;9.166;2022-09-09T05:32:43;2.23;;;1.90;;
3847;SDS011;1939;48.720;9.166;2022-09-09T05:35:08;2.87;;;1.73;;
3847;SDS011;1939;48.720;9.166;2022-09-09T05:37:34;7.43;;;2.43;;
3847;SDS011;1939;48.720;9.166;2022-09-09T05:40:00;5.13;;;1.40;;
3847;SDS011;1939;48.720;9.166;2022-09-09T05:42:29;4.13;;;2.60;;
3847;SDS011;1939;48.720;9.166;2022-09-09T05:44:55;3.07;;;1.70;;
3847;SDS011;1939;48.720;9.166;2022-09-09T05:47:20;9.73;;;1.80;;
3847;SDS011;1939;48.720;9.166;2022-09-09T05:49:46;10.20;;;2.20;;
3847;SDS011;1939;48.720;9.166;2022-09-09T05:52:11;10.40;;;2.30;;
3847;SDS011;1939;48.720;9.166;2022-09-09T05:54:36;2.37;;;1.40;;
3847;SDS011;1939;48.720;9.166;2022-09-09T05:57:02;3.67;;;1.70;;
3847;SDS011;1939;48.720;9.166;2022-09-09T05:59:28;1.73;;;1.43;;
3847;SDS011;1939;48.720;9.166;2022-09-09T06:01:53;9.77;;;1.97;;
3847;SDS011;1939;48.720;9.166;2022-09-09T06:04:19;3.20;;;2.23;;
3847;SDS011;1939;48.720;9.166;2022-09-09T06:06:49;2.90;;;1.80;;
3847;SDS011;1939;48.720;9.166;2022-09-09T06:09:14;2.90;;;1.53;;
3847;SDS011;1939;48.720;9.166;2022-09-09T06:11:40;4.60;;;1.70;;
3847;SDS011;1939;48.720;9.166;2022-09-09T06:14:06;4.73;;;1.80;;
3847;SDS011;1939;48.720;9.166;2022-09-09T06:16:31;5.63;;;1.50;;
3847;SDS011;1939;48.720;9.166;2022-09-09T06:18:57;6.77;;;1.60;;
3847;SDS011;1939;48.720;9.166;2022-09-09T06:21:24;1.77;;;1.63;;
3847;SDS011;1939;48.720;9.166;2022-09-09T06:23:49;6.27;;;1.70;;
3847;SDS011;1939;48.720;9.166;2022-09-09T06:26:17;3.30;;;1.70;;
3847;SDS011;1939;48.720;9.166;2022-09-09T06:28:43;5.50;;;2.00;;
3847;SDS011;1939;48.720;9.166;2022-09-09T06:31:10;4.67;;;2.80;;
3847;SDS011;1939;48.720;9.166;2022-09-09T06:33:36;2.50;;;1.67;;
3847;SDS011;1939;48.720;9.166;2022-09-09T06:36:05;3.07;;;1.90;;
3847;SDS011;1939;48.720;9.166;2022-09-09T06:38:30;4.27;;;1.70;;
3847;SDS011;1939;48.720;9.166;2022-09-09T06:40:57;7.50;;;1.70;;
3847;SDS011;1939;48.720;9.166;2022-09-09T06:43:23;2.33;;;1.70;;
3847;SDS011;1939;48.720;9.166;2022-09-09T06:45:55;4.93;;;1.97;;
3847;SDS011;1939;48.720;9.166;2022-09-09T06:48:20;5.37;;;1.90;;
3847;SDS011;1939;48.720;9.166;2022-09-09T06:50:46;4.63;;;1.70;;
3847;SDS011;1939;48.720;9.166;2022-09-09T06:53:11;5.10;;;1.80;;
3847;SDS011;1939;48.720;9.166;2022-09-09T06:55:36;3.77;;;1.57;;
3847;SDS011;1939;48.720;9.166;2022-09-09T06:58:01;4.47;;;1.60;;
3847;SDS011;1939;48.720;9.166;2022-09-09T07:00:27;5.90;;;1.53;;
3847;SDS011;1939;48.720;9.166;2022-09-09T07:02:53;4.83;;;1.83;;
3847;SDS011;1939;48.720;9.166;2022-09-09T07:05:18;4.87;;;1.50;;
3847;SDS011;1939;48.720;9.166;2022-09-09T07:07:44;2.57;;;1.40;;
3847;SDS011;1939;48.720;9.166;2022-09-09T07:10:09;2.23;;;1.77;;
3847;SDS011;1939;48.720;9.166;2022-09-09T07:12:34;6.50;;;2.37;;
3847;SDS011;1939;48.720;9.166;2022-09-09T07:14:59;5.20;;;1.70;;
3847;SDS011;1939;48.720;9.166;2022-09-09T07:17:25;4.40;;;1.60;;
3847;SDS011;1939;48.720;9.166;2022-09-09T07:19:50;5.77;;;2.03;;
3847;SDS011;1939;48.720;9.166;2022-09-09T07:22:15;3.00;;;1.57;;
3847;SDS011;1939;48.720;9.166;2022-09-09T07:24:41;2.03;;;1.07;;
3847;SDS011;1939;48.720;9.166;2022-09-09T07:27:06;3.97;;;1.40;;
3847;SDS011;1939;48.720;9.166;2022-09-09T07:29:31;5.43;;;1.73;;
3847;SDS011;1939;48.720;9.166;2022-09-09T07:31:56;2.90;;;1.33;;
3847;SDS011;1939;48.720;9.166;2022-09-09T07:34:21;7.33;;;2.87;;
3847;SDS011;1939;48.720;9.166;2022-09-09T07:36:47;5.63;;;1.67;;
3847;SDS011;1939;48.720;9.166;2022-09-09T07:39:13;4.20;;;1.70;;
3847;SDS011;1939;48.720;9.166;2022-09-09T07:41:40;3.83;;;1.03;;
3847;SDS011;1939;48.720;9.166;2022-09-09T07:44:06;3.53;;;1.50;;
3847;SDS011;1939;48.720;9.166;2022-09-09T07:46:32;2.70;;;1.33;;
3847;SDS011;1939;48.720;9.166;2022-09-09T07:48:57;2.17;;;1.30;;
3847;SDS011;1939;48.720;9.166;2022-09-09T07:51:27;4.30;;;1.23;;
3847;SDS011;1939;48.720;9.166;2022-09-09T07:53:54;3.23;;;1.33;;
3847;SDS011;1939;48.720;9.166;2022-09-09T07:56:19;4.07;;;1.30;;
3847;SDS011;1939;48.720;9.166;2022-09-09T07:58:48;4.90;;;1.30;;
3847;SDS011;1939;48.720;9.166;2022-09-09T08:01:18;4.53;;;1.27;;
3847;SDS011;1939;48.720;9.166;2022-09-09T08:03:44;2.60;;;1.20;;
3847;SDS011;1939;48.720;9.166;2022-09-09T08:06:10;3.37;;;1.00;;
3847;SDS011;1939;48.720;9.166;2022-09-09T08:08:36;3.03;;;1.50;;
3847;SDS011;1939;48.720;9.166;2022-09-09T08:11:02;2.20;;;1.47;;
3847;SDS011;1939;48.720;9.166;2022-09-09T08:13:28;5.27;;;1.30;;
3847;SDS011;1939;48.720;9.166;2022-09-09T08:15:53;2.57;;;1.03;;
3847;SDS011;1939;48.720;9.166;2022-09-09T08:18:18;1.43;;;0.93;;
3847;SDS011;1939;48.720;9.166;2022-09-09T08:20:44;4.10;;;1.10;;
3847;SDS011;1939;48.720;9.166;2022-09-09T08:23:09;4.47;;;1.07;;
3847;SDS011;1939;48.720;9.166;2022-09-09T08:25:34;2.57;;;0.80;;
3847;SDS011;1939;48.720;9.166;2022-09-09T08:27:59;2.80;;;0.93;;
3847;SDS011;1939;48.720;9.166;2022-09-09T08:30:24;5.90;;;1.37;;
3847;SDS011;1939;48.720;9.166;2022-09-09T08:32:50;4.10;;;1.13;;
3847;SDS011;1939;48.720;9.166;2022-09-09T08:35:16;3.17;;;0.93;;
3847;SDS011;1939;48.720;9.166;2022-09-09T08:37:42;5.67;;;1.10;;
3847;SDS011;1939;48.720;9.166;2022-09-09T08:40:08;5.07;;;1.43;;
3847;SDS011;1939;48.720;9.166;2022-09-09T08:42:37;2.40;;;0.90;;
3847;SDS011;1939;48.720;9.166;2022-09-09T08:45:12;7.20;;;2.23;;
3847;SDS011;1939;48.720;9.166;2022-09-09T08:50:30;3.60;;;0.73;;
3847;SDS011;1939;48.720;9.166;2022-09-09T08:58:04;6.60;;;1.40;;
3847;SDS011;1939;48.720;9.166;2022-09-09T09:00:36;3.87;;;1.47;;
3847;SDS011;1939;48.720;9.166;2022-09-09T09:03:10;4.27;;;2.20;;
3847;SDS011;1939;48.720;9.166;2022-09-09T09:05:44;3.00;;;1.10;;
3847;SDS011;1939;48.720;9.166;2022-09-09T09:08:20;3.73;;;1.40;;
3847;SDS011;1939;48.720;9.166;2022-09-09T09:10:49;2.77;;;1.00;;
3847;SDS011;1939;48.720;9.166;2022-09-09T09:16:13;2.43;;;0.77;;
3847;SDS011;1939;48.720;9.166;2022-09-09T09:18:42;2.87;;;1.00;;
3847;SDS011;1939;48.720;9.166;2022-09-09T09:21:15;1.30;;;0.70;;
3847;SDS011;1939;48.720;9.166;2022-09-09T09:23:45;4.73;;;1.50;;
3847;SDS011;1939;48.720;9.166;2022-09-09T09:26:13;4.77;;;1.50;;
3847;SDS011;1939;48.720;9.166;2022-09-09T09:28:38;7.77;;;1.50;;
3847;SDS011;1939;48.720;9.166;2022-09-09T09:31:09;7.30;;;2.10;;
3847;SDS011;1939;48.720;9.166;2022-09-09T09:33:43;5.00;;;1.33;;
3847;SDS011;1939;48.720;9.166;2022-09-09T09:36:11;5.73;;;1.93;;
3847;SDS011;1939;48.720;9.166;2022-09-09T09:38:40;7.53;;;1.57;;
3847;SDS011;1939;48.720;9.166;2022-09-09T09:41:15;5.63;;;1.53;;
3847;SDS011;1939;48.720;9.166;2022-09-09T09:43:52;2.40;;;1.20;;
3847;SDS011;1939;48.720;9.166;2022-09-09T09:46:22;3.27;;;1.20;;
3847;SDS011;1939;48.720;9.166;2022-09-09T09:48:58;5.40;;;1.17;;
3847;SDS011;1939;48.720;9.166;2022-09-09T09:51:23;6.30;;;1.10;;
3847;SDS011;1939;48.720;9.166;2022-09-09T09:53:49;4.30;;;1.10;;
3847;SDS011;1939;48.720;9.166;2022-09-09T09:56:14;2.40;;;1.53;;
3847;SDS011;1939;48.720;9.166;2022-09-09T10:03:49;2.80;;;1.30;;
3847;SDS011;1939;48.720;9.166;2022-09-09T10:06:15;3.33;;;0.90;;
3847;SDS011;1939;48.720;9.166;2022-09-09T10:08:46;1.33;;;0.90;;
3847;SDS011;1939;48.720;9.166;2022-09-09T10:16:19;2.92;;;1.25;;
3847;SDS011;1939;48.720;9.166;2022-09-09T10:21:54;1.83;;;0.97;;
3847;SDS011;1939;48.720;9.166;2022-09-09T10:29:26;2.27;;;0.90;;
3847;SDS011;1939;48.720;9.166;2022-09-09T10:32:38;1.93;;;0.80;;
3847;SDS011;1939;48.720;9.166;2022-09-09T10:34:52;3.73;;;1.37;;
3847;SDS011;1939;48.720;9.166;2022-09-09T10:37:24;5.80;;;1.47;;
3847;SDS011;1939;48.720;9.166;2022-09-09T10:39:56;4.80;;;1.17;;
3847;SDS011;1939;48.720;9.166;2022-09-09T10:42:27;2.13;;;0.87;;
3847;SDS011;1939;48.720;9.166;2022-09-09T10:55:13;4.70;;;1.30;;
3847;SDS011;1939;48.720;9.166;2022-09-09T10:57:41;3.13;;;1.00;;
3847;SDS011;1939;48.720;9.166;2022-09-09T11:00:14;9.77;;;1.43;;
3847;SDS011;1939;48.720;9.166;2022-09-09T11:02:40;5.73;;;1.10;;
3847;SDS011;1939;48.720;9.166;2022-09-09T11:05:10;5.37;;;1.40;;
3847;SDS011;1939;48.720;9.166;2022-09-09T11:07:40;2.00;;;1.23;;
3847;SDS011;1939;48.720;9.166;2022-09-09T11:10:19;6.40;;;1.87;;
3847;SDS011;1939;48.720;9.166;2022-09-09T11:12:46;6.30;;;1.27;;
3847;SDS011;1939;48.720;9.166;2022-09-09T11:15:15;4.27;;;1.57;;
3847;SDS011;1939;48.720;9.166;2022-09-09T11:17:46;2.70;;;1.60;;
3847;SDS011;1939;48.720;9.166;2022-09-09T11:20:14;3.83;;;1.10;;
3847;SDS011;1939;48.720;9.166;2022-09-09T11:22:57;3.13;;;1.50;;
3847;SDS011;1939;48.720;9.166;2022-09-09T11:25:41;9.77;;;1.90;;
3847;SDS011;1939;48.720;9.166;2022-09-09T11:28:15;1.53;;;1.10;;
3847;SDS011;1939;48.720;9.166;2022-09-09T11:33:22;6.77;;;1.20;;
3847;SDS011;1939;48.720;9.166;2022-09-09T11:40:44;1.50;;;0.90;;
3847;SDS011;1939;48.720;9.166;2022-09-09T11:43:21;2.93;;;0.77;;
3847;SDS011;1939;48.720;9.166;2022-09-09T11:45:52;1.37;;;0.70;;
3847;SDS011;1939;48.720;9.166;2022-09-09T11:48:22;3.83;;;0.80;;
3847;SDS011;1939;48.720;9.166;2022-09-09T11:50:56;3.27;;;1.10;;
3847;SDS011;1939;48.720;9.166;2022-09-09T11:53:23;0.80;;;0.40;;
3847;SDS011;1939;48.720;9.166;2022-09-09T11:55:59;3.13;;;0.90;;
3847;SDS011;1939;48.720;9.166;2022-09-09T11:58:26;1.90;;;0.53;;
3847;SDS011;1939;48.720;9.166;2022-09-09T12:00:52;0.93;;;0.50;;
3847;SDS011;1939;48.720;9.166;2022-09-09T12:03:39;0.83;;;0.40;;
3847;SDS011;1939;48.720;9.166;2022-09-09T12:06:25;1.03;;;0.40;;
3847;SDS011;1939;48.720;9.166;2022-09-09T12:08:54;1.57;;;0.20;;
3847;SDS011;1939;48.720;9.166;2022-09-09T12:11:28;3.73;;;0.37;;
3847;SDS011;1939;48.720;9.166;2022-09-09T12:13:55;0.60;;;0.30;;
3847;SDS011;1939;48.720;9.166;2022-09-09T12:16:27;1.33;;;0.40;;
3847;SDS011;1939;48.720;9.166;2022-09-09T12:19:02;2.13;;;0.40;;
3847;SDS011;1939;48.720;9.166;2022-09-09T12:21:32;2.07;;;0.40;;
3847;SDS011;1939;48.720;9.166;2022-09-09T12:24:03;3.07;;;0.60;;
3847;SDS011;1939;48.720;9.166;2022-09-09T12:26:39;0.50;;;0.33;;
3847;SDS011;1939;48.720;9.166;2022-09-09T12:29:16;0.87;;;0.43;;
3847;SDS011;1939;48.720;9.166;2022-09-09T12:31:46;0.70;;;0.30;;
3847;SDS011;1939;48.720;9.166;2022-09-09T12:34:36;1.90;;;0.60;;
3847;SDS011;1939;48.720;9.166;2022-09-09T12:37:03;1.53;;;0.30;;
3847;SDS011;1939;48.720;9.166;2022-09-09T12:39:34;6.00;;;0.67;;
3847;SDS011;1939;48.720;9.166;2022-09-09T12:42:00;3.37;;;1.30;;
3847;SDS011;1939;48.720;9.166;2022-09-09T12:44:26;1.33;;;0.60;;
3847;SDS011;1939;48.720;9.166;2022-09-09T12:46:54;7.40;;;0.80;;
3847;SDS011;1939;48.720;9.166;2022-09-09T12:49:31;0.90;;;0.50;;
3847;SDS011;1939;48.720;9.166;2022-09-09T12:52:01;1.63;;;0.83;;
3847;SDS011;1939;48.720;9.166;2022-09-09T12:54:26;4.23;;;1.00;;
3847;SDS011;1939;48.720;9.166;2022-09-09T12:56:51;2.20;;;0.47;;
3847;SDS011;1939;48.720;9.166;2022-09-09T12:59:24;5.43;;;1.00;;
3847;SDS011;1939;48.720;9.166;2022-09-09T13:01:56;4.17;;;0.93;;
3847;SDS011;1939;48.720;9.166;2022-09-09T13:04:22;2.80;;;1.00;;
3847;SDS011;1939;48.720;9.166;2022-09-09T13:06:47;1.40;;;0.60;;
3847;SDS011;1939;48.720;9.166;2022-09-09T13:09:12;1.70;;;0.70;;
3847;SDS011;1939;48.720;9.166;2022-09-09T13:11:38;2.43;;;0.70;;
3847;SDS011;1939;48.720;9.166;2022-09-09T13:14:12;2.03;;;0.70;;
3847;SDS011;1939;48.720;9.166;2022-09-09T13:16:38;2.83;;;0.80;;
3847;SDS011;1939;48.720;9.166;2022-09-09T13:19:16;5.60;;;0.83;;
3847;SDS011;1939;48.720;9.166;2022-09-09T13:21:41;1.57;;;0.80;;
3847;SDS011;1939;48.720;9.166;2022-09-09T13:26:56;0.90;;;0.50;;
3847;SDS011;1939;48.720;9.166;2022-09-09T13:29:21;1.23;;;0.60;;
3847;SDS011;1939;48.720;9.166;2022-09-09T13:31:46;3.17;;;0.87;;
3847;SDS011;1939;48.720;9.166;2022-09-09T13:34:13;3.00;;;0.70;;
3847;SDS011;1939;48.720;9.166;2022-09-09T13:36:39;1.23;;;0.60;;
3847;SDS011;1939;48.720;9.166;2022-09-09T13:39:13;4.60;;;0.80;;
3847;SDS011;1939;48.720;9.166;2022-09-09T13:41:43;2.47;;;0.70;;
3847;SDS011;1939;48.720;9.166;2022-09-09T13:44:23;2.60;;;0.70;;
3847;SDS011;1939;48.720;9.166;2022-09-09T13:46:59;2.10;;;0.97;;
3847;SDS011;1939;48.720;9.166;2022-09-09T13:49:24;2.60;;;0.80;;
3847;SDS011;1939;48.720;9.166;2022-09-09T13:52:02;2.27;;;0.70;;
3847;SDS011;1939;48.720;9.166;2022-09-09T13:54:27;1.20;;;0.80;;
3847;SDS011;1939;48.720;9.166;2022-09-09T13:56:52;3.83;;;0.70;;
3847;SDS011;1939;48.720;9.166;2022-09-09T13:59:19;1.73;;;0.60;;
3847;SDS011;1939;48.720;9.166;2022-09-09T14:01:44;3.60;;;0.77;;
3847;SDS011;1939;48.720;9.166;2022-09-09T14:04:10;4.90;;;0.80;;
3847;SDS011;1939;48.720;9.166;2022-09-09T14:06:35;6.93;;;0.97;;
3847;SDS011;1939;48.720;9.166;2022-09-09T14:09:07;9.00;;;1.60;;
3847;SDS011;1939;48.720;9.166;2022-09-09T14:11:34;1.23;;;0.57;;
3847;SDS011;1939;48.720;9.166;2022-09-09T14:14:00;2.10;;;0.90;;
3847;SDS011;1939;48.720;9.166;2022-09-09T14:16:25;2.00;;;0.90;;
3847;SDS011;1939;48.720;9.166;2022-09-09T14:18:52;4.20;;;0.53;;
3847;SDS011;1939;48.720;9.166;2022-09-09T14:21:18;1.43;;;0.50;;
3847;SDS011;1939;48.720;9.166;2022-09-09T14:23:43;1.60;;;0.80;;
3847;SDS011;1939;48.720;9.166;2022-09-09T14:26:08;2.87;;;0.60;;
3847;SDS011;1939;48.720;9.166;2022-09-09T14:28:34;1.43;;;0.70;;
3847;SDS011;1939;48.720;9.166;2022-09-09T14:31:00;0.70;;;0.50;;
3847;SDS011;1939;48.720;9.166;2022-09-09T14:33:26;1.07;;;0.77;;
3847;SDS011;1939;48.720;9.166;2022-09-09T14:35:56;1.20;;;0.60;;
3847;SDS011;1939;48.720;9.166;2022-09-09T14:38:22;1.23;;;0.50;;
3847;SDS011;1939;48.720;9.166;2022-09-09T14:40:47;4.07;;;0.80;;
3847;SDS011;1939;48.720;9.166;2022-09-09T14:43:12;3.50;;;0.70;;
3847;SDS011;1939;48.720;9.166;2022-09-09T14:45:38;2.53;;;0.30;;
3847;SDS011;1939;48.720;9.166;2022-09-09T14:48:03;3.53;;;0.70;;
3847;SDS011;1939;48.720;9.166;2022-09-09T14:50:28;6.43;;;1.03;;
3847;SDS011;1939;48.720;9.166;2022-09-09T14:52:54;4.03;;;0.80;;
3847;SDS011;1939;48.720;9.166;2022-09-09T14:55:19;3.17;;;0.80;;
3847;SDS011;1939;48.720;9.166;2022-09-09T14:57:44;2.40;;;0.87;;
3847;SDS011;1939;48.720;9.166;2022-09-09T15:00:10;4.13;;;0.90;;
3847;SDS011;1939;48.720;9.166;2022-09-09T15:02:36;5.33;;;1.10;;
3847;SDS011;1939;48.720;9.166;2022-09-09T15:05:02;1.87;;;0.60;;
3847;SDS011;1939;48.720;9.166;2022-09-09T15:07:27;1.17;;;0.53;;
3847;SDS011;1939;48.720;9.166;2022-09-09T15:09:53;1.63;;;0.70;;
3847;SDS011;1939;48.720;9.166;2022-09-09T15:12:19;1.87;;;0.93;;
3847;SDS011;1939;48.720;9.166;2022-09-09T15:14:45;1.60;;;0.53;;
3847;SDS011;1939;48.720;9.166;2022-09-09T15:17:10;2.10;;;0.53;;
3847;SDS011;1939;48.720;9.166;2022-09-09T15:19:36;1.83;;;1.13;;
3847;SDS011;1939;48.720;9.166;2022-09-09T15:22:01;3.17;;;1.17;;
3847;SDS011;1939;48.720;9.166;2022-09-09T15:24:27;2.20;;;0.68;;
3847;SDS011;1939;48.720;9.166;2022-09-09T15:26:52;2.63;;;0.80;;
3847;SDS011;1939;48.720;9.166;2022-09-09T15:29:18;6.03;;;1.03;;
3847;SDS011;1939;48.720;9.166;2022-09-09T15:31:43;4.10;;;0.80;;
3847;SDS011;1939;48.720;9.166;2022-09-09T15:34:09;3.33;;;1.27;;
3847;SDS011;1939;48.720;9.166;2022-09-09T15:36:35;1.70;;;0.60;;
3847;SDS011;1939;48.720;9.166;2022-09-09T15:39:01;4.40;;;0.70;;
3847;SDS011;1939;48.720;9.166;2022-09-09T15:41:27;4.83;;;1.03;;
3847;SDS011;1939;48.720;9.166;2022-09-09T15:43:53;2.00;;;1.03;;
3847;SDS011;1939;48.720;9.166;2022-09-09T15:48:49;9.73;;;0.87;;
3847;SDS011;1939;48.720;9.166;2022-09-09T15:51:15;3.88;;;1.20;;
3847;SDS011;1939;48.720;9.166;2022-09-09T15:53:40;3.23;;;0.80;;
3847;SDS011;1939;48.720;9.166;2022-09-09T15:56:06;1.70;;;0.50;;
3847;SDS011;1939;48.720;9.166;2022-09-09T15:58:34;2.60;;;0.87;;
3847;SDS011;1939;48.720;9.166;2022-09-09T16:01:04;2.30;;;1.13;;
3847;SDS011;1939;48.720;9.166;2022-09-09T16:03:33;5.57;;;0.80;;
3847;SDS011;1939;48.720;9.166;2022-09-09T16:05:58;3.07;;;0.97;;
3847;SDS011;1939;48.720;9.166;2022-09-09T16:08:24;1.83;;;0.83;;
3847;SDS011;1939;48.720;9.166;2022-09-09T16:10:50;1.87;;;0.70;;
3847;SDS011;1939;48.720;9.166;2022-09-09T16:13:15;3.37;;;0.73;;
3847;SDS011;1939;48.720;9.166;2022-09-09T16:15:41;3.77;;;0.97;;
3847;SDS011;1939;48.720;9.166;2022-09-09T16:18:06;3.03;;;0.80;;
3847;SDS011;1939;48.720;9.166;2022-09-09T16:20:31;1.70;;;0.60;;
3847;SDS011;1939;48.720;9.166;2022-09-09T16:22:56;1.57;;;0.60;;
3847;SDS011;1939;48.720;9.166;2022-09-09T16:25:22;3.17;;;1.60;;
3847;SDS011;1939;48.720;9.166;2022-09-09T16:27:47;1.37;;;0.40;;
3847;SDS011;1939;48.720;9.166;2022-09-09T16:30:12;5.03;;;0.60;;
3847;SDS011;1939;48.720;9.166;2022-09-09T16:32:38;1.37;;;0.80;;
3847;SDS011;1939;48.720;9.166;2022-09-09T16:35:03;4.27;;;0.90;;
3847;SDS011;1939;48.720;9.166;2022-09-09T16:37:28;2.17;;;0.80;;
3847;SDS011;1939;48.720;9.166;2022-09-09T16:39:54;3.90;;;1.27;;